sensor_id;sensor_type;location;lat;lon;timestamp;temperature;humidity
65692;DHT22;52411;52.716;6.696;2023-12-14T00:01:18;5.70;99.90
65692;DHT22;52411;52.716;6.696;2023-12-14T00:03:43;5.70;99.90
65692;DHT22;52411;52.716;6.696;2023-12-14T00:06:12;5.70;99.90
65692;DHT22;52411;52.716;6.696;2023-12-14T00:08:38;5.60;99.90
65692;DHT22;52411;52.716;6.696;2023-12-14T00:11:08;5.70;99.90
65692;DHT22;52411;52.716;6.696;2023-12-14T00:13:34;5.70;99.90
65692;DHT22;52411;52.716;6.696;2023-12-14T00:16:00;5.70;99.90
65692;DHT22;52411;52.716;6.696;2023-12-14T00:18:26;5.70;99.90
65692;DHT22;52411;52.716;6.696;2023-12-14T00:20:52;5.70;99.90
65692;DHT22;52411;52.716;6.696;2023-12-14T00:23:19;5.70;99.90
65692;DHT22;52411;52.716;6.696;2023-12-14T00:25:45;5.70;99.90
65692;DHT22;52411;52.716;6.696;2023-12-14T00:28:10;5.70;99.90
65692;DHT22;52411;52.716;6.696;2023-12-14T00:30:36;5.70;99.90
65692;DHT22;52411;52.716;6.696;2023-12-14T00:33:01;5.70;99.90
65692;DHT22;52411;52.716;6.696;2023-12-14T00:35:27;5.70;99.90
65692;DHT22;52411;52.716;6.696;2023-12-14T00:37:53;5.70;99.90
65692;DHT22;52411;52.716;6.696;2023-12-14T00:40:18;5.70;99.90
65692;DHT22;52411;52.716;6.696;2023-12-14T00:42:44;5.70;99.90
65692;DHT22;52411;52.716;6.696;2023-12-14T00:45:10;5.70;99.90
65692;DHT22;52411;52.716;6.696;2023-12-14T00:47:35;5.70;99.90
65692;DHT22;52411;52.716;6.696;2023-12-14T00:50:01;5.60;99.90
65692;DHT22;52411;52.716;6.696;2023-12-14T00:52:27;5.70;99.90
65692;DHT22;52411;52.716;6.696;2023-12-14T00:54:53;5.70;99.90
65692;DHT22;52411;52.716;6.696;2023-12-14T00:57:18;5.60;99.90
65692;DHT22;52411;52.716;6.696;2023-12-14T00:59:44;5.60;99.90
65692;DHT22;52411;52.716;6.696;2023-12-14T01:02:09;5.60;99.90
65692;DHT22;52411;52.716;6.696;2023-12-14T01:04:35;5.60;99.90
65692;DHT22;52411;52.716;6.696;2023-12-14T01:07:00;5.60;99.90
65692;DHT22;52411;52.716;6.696;2023-12-14T01:09:26;5.60;99.90
65692;DHT22;52411;52.716;6.696;2023-12-14T01:11:51;5.60;99.90
65692;DHT22;52411;52.716;6.696;2023-12-14T01:14:17;5.60;99.90
65692;DHT22;52411;52.716;6.696;2023-12-14T01:16:43;5.60;99.90
65692;DHT22;52411;52.716;6.696;2023-12-14T01:19:08;5.60;99.90
65692;DHT22;52411;52.716;6.696;2023-12-14T01:21:34;5.60;99.90
65692;DHT22;52411;52.716;6.696;2023-12-14T01:23:59;5.60;99.90
65692;DHT22;52411;52.716;6.696;2023-12-14T01:26:28;5.60;99.90
65692;DHT22;52411;52.716;6.696;2023-12-14T01:28:54;5.60;99.90
65692;DHT22;52411;52.716;6.696;2023-12-14T01:31:19;5.50;99.90
65692;DHT22;52411;52.716;6.696;2023-12-14T01:33:48;5.50;99.90
65692;DHT22;52411;52.716;6.696;2023-12-14T01:36:23;5.50;99.90
65692;DHT22;52411;52.716;6.696;2023-12-14T01:38:49;5.50;99.90
65692;DHT22;52411;52.716;6.696;2023-12-14T01:41:14;5.50;99.90
65692;DHT22;52411;52.716;6.696;2023-12-14T01:43:40;5.60;99.90
65692;DHT22;52411;52.716;6.696;2023-12-14T01:46:06;5.60;99.90
65692;DHT22;52411;52.716;6.696;2023-12-14T01:48:31;5.60;99.90
65692;DHT22;52411;52.716;6.696;2023-12-14T01:50:57;5.60;99.90
65692;DHT22;52411;52.716;6.696;2023-12-14T01:53:22;5.60;99.90
65692;DHT22;52411;52.716;6.696;2023-12-14T01:55:48;5.50;99.90
65692;DHT22;52411;52.716;6.696;2023-12-14T01:58:14;5.60;99.90
65692;DHT22;52411;52.716;6.696;2023-12-14T02:00:43;5.60;99.90
65692;DHT22;52411;52.716;6.696;2023-12-14T02:03:10;5.60;99.90
65692;DHT22;52411;52.716;6.696;2023-12-14T02:05:36;5.60;99.90
65692;DHT22;52411;52.716;6.696;2023-12-14T02:08:02;5.50;99.90
65692;DHT22;52411;52.716;6.696;2023-12-14T02:10:27;5.50;99.90
65692;DHT22;52411;52.716;6.696;2023-12-14T02:12:53;5.50;99.90
65692;DHT22;52411;52.716;6.696;2023-12-14T02:15:18;5.50;99.90
65692;DHT22;52411;52.716;6.696;2023-12-14T02:17:44;5.50;99.90
65692;DHT22;52411;52.716;6.696;2023-12-14T02:20:10;5.50;99.90
65692;DHT22;52411;52.716;6.696;2023-12-14T02:22:48;5.50;99.90
65692;DHT22;52411;52.716;6.696;2023-12-14T02:25:15;5.50;99.90
65692;DHT22;52411;52.716;6.696;2023-12-14T02:27:41;5.50;99.90
65692;DHT22;52411;52.716;6.696;2023-12-14T02:30:07;5.40;99.90
65692;DHT22;52411;52.716;6.696;2023-12-14T02:32:33;5.40;99.90
65692;DHT22;52411;52.716;6.696;2023-12-14T02:34:58;5.40;99.90
65692;DHT22;52411;52.716;6.696;2023-12-14T02:37:24;5.40;99.90
65692;DHT22;52411;52.716;6.696;2023-12-14T02:39:49;5.40;99.90
65692;DHT22;52411;52.716;6.696;2023-12-14T02:42:15;5.40;99.90
65692;DHT22;52411;52.716;6.696;2023-12-14T02:44:40;5.40;99.90
65692;DHT22;52411;52.716;6.696;2023-12-14T02:47:06;5.40;99.90
65692;DHT22;52411;52.716;6.696;2023-12-14T02:49:31;5.40;99.90
65692;DHT22;52411;52.716;6.696;2023-12-14T02:51:57;5.40;99.90
65692;DHT22;52411;52.716;6.696;2023-12-14T02:54:23;5.30;99.90
65692;DHT22;52411;52.716;6.696;2023-12-14T02:56:48;5.30;99.90
65692;DHT22;52411;52.716;6.696;2023-12-14T02:59:14;5.30;99.90
65692;DHT22;52411;52.716;6.696;2023-12-14T03:01:40;5.30;99.90
65692;DHT22;52411;52.716;6.696;2023-12-14T03:04:06;5.30;99.90
65692;DHT22;52411;52.716;6.696;2023-12-14T03:06:33;5.30;99.90
65692;DHT22;52411;52.716;6.696;2023-12-14T03:08:59;5.30;99.90
65692;DHT22;52411;52.716;6.696;2023-12-14T03:11:25;5.30;99.90
65692;DHT22;52411;52.716;6.696;2023-12-14T03:13:51;5.30;99.90
65692;DHT22;52411;52.716;6.696;2023-12-14T03:16:17;5.30;99.90
65692;DHT22;52411;52.716;6.696;2023-12-14T03:18:42;5.20;99.90
65692;DHT22;52411;52.716;6.696;2023-12-14T03:21:09;5.20;99.90
65692;DHT22;52411;52.716;6.696;2023-12-14T03:23:35;5.20;99.90
65692;DHT22;52411;52.716;6.696;2023-12-14T03:26:01;5.20;99.90
65692;DHT22;52411;52.716;6.696;2023-12-14T03:28:26;5.20;99.90
65692;DHT22;52411;52.716;6.696;2023-12-14T03:30:52;5.20;99.90
65692;DHT22;52411;52.716;6.696;2023-12-14T03:33:18;5.20;99.90
65692;DHT22;52411;52.716;6.696;2023-12-14T03:35:45;5.20;99.90
65692;DHT22;52411;52.716;6.696;2023-12-14T03:38:14;5.20;99.90
65692;DHT22;52411;52.716;6.696;2023-12-14T03:40:40;5.20;99.90
65692;DHT22;52411;52.716;6.696;2023-12-14T03:43:06;5.20;99.90
65692;DHT22;52411;52.716;6.696;2023-12-14T03:45:31;5.20;99.90
65692;DHT22;52411;52.716;6.696;2023-12-14T03:47:57;5.20;99.90
65692;DHT22;52411;52.716;6.696;2023-12-14T03:50:23;5.20;99.90
65692;DHT22;52411;52.716;6.696;2023-12-14T03:52:48;5.20;99.90
65692;DHT22;52411;52.716;6.696;2023-12-14T03:55:14;5.20;99.90
65692;DHT22;52411;52.716;6.696;2023-12-14T03:57:42;5.20;99.90
65692;DHT22;52411;52.716;6.696;2023-12-14T04:00:14;5.20;99.90
65692;DHT22;52411;52.716;6.696;2023-12-14T04:02:40;5.20;99.90
65692;DHT22;52411;52.716;6.696;2023-12-14T04:05:09;5.20;99.90
65692;DHT22;52411;52.716;6.696;2023-12-14T04:07:36;5.20;99.90
65692;DHT22;52411;52.716;6.696;2023-12-14T04:10:02;5.10;99.90
65692;DHT22;52411;52.716;6.696;2023-12-14T04:12:28;5.20;99.90
65692;DHT22;52411;52.716;6.696;2023-12-14T04:14:53;5.20;99.90
65692;DHT22;52411;52.716;6.696;2023-12-14T04:17:19;5.20;99.90
65692;DHT22;52411;52.716;6.696;2023-12-14T04:19:44;5.20;99.90
65692;DHT22;52411;52.716;6.696;2023-12-14T04:22:10;5.20;99.90
65692;DHT22;52411;52.716;6.696;2023-12-14T04:24:35;5.20;99.90
65692;DHT22;52411;52.716;6.696;2023-12-14T04:27:01;5.20;99.90
65692;DHT22;52411;52.716;6.696;2023-12-14T04:29:26;5.20;99.90
65692;DHT22;52411;52.716;6.696;2023-12-14T04:31:52;5.20;99.90
65692;DHT22;52411;52.716;6.696;2023-12-14T04:39:29;5.20;99.90
65692;DHT22;52411;52.716;6.696;2023-12-14T04:41:55;5.20;99.90
65692;DHT22;52411;52.716;6.696;2023-12-14T04:44:21;5.20;99.90
65692;DHT22;52411;52.716;6.696;2023-12-14T04:46:47;5.20;99.90
65692;DHT22;52411;52.716;6.696;2023-12-14T04:49:13;5.20;99.90
65692;DHT22;52411;52.716;6.696;2023-12-14T04:51:39;5.20;99.90
65692;DHT22;52411;52.716;6.696;2023-12-14T04:54:04;5.20;99.90
65692;DHT22;52411;52.716;6.696;2023-12-14T04:56:30;5.20;99.90
65692;DHT22;52411;52.716;6.696;2023-12-14T04:58:55;5.20;99.90
65692;DHT22;52411;52.716;6.696;2023-12-14T05:01:21;5.20;99.90
65692;DHT22;52411;52.716;6.696;2023-12-14T05:03:47;5.20;99.90
65692;DHT22;52411;52.716;6.696;2023-12-14T05:06:13;5.10;99.90
65692;DHT22;52411;52.716;6.696;2023-12-14T05:14:52;5.10;99.90
65692;DHT22;52411;52.716;6.696;2023-12-14T05:17:17;5.10;99.90
65692;DHT22;52411;52.716;6.696;2023-12-14T05:40:26;5.10;99.90
65692;DHT22;52411;52.716;6.696;2023-12-14T05:45:27;5.10;99.90
65692;DHT22;52411;52.716;6.696;2023-12-14T05:58:15;5.10;99.90
65692;DHT22;52411;52.716;6.696;2023-12-14T06:00:41;5.10;99.90
65692;DHT22;52411;52.716;6.696;2023-12-14T06:03:06;5.10;99.90
65692;DHT22;52411;52.716;6.696;2023-12-14T06:05:32;5.10;99.90
65692;DHT22;52411;52.716;6.696;2023-12-14T06:07:57;5.10;99.90
65692;DHT22;52411;52.716;6.696;2023-12-14T06:10:23;5.10;99.90
65692;DHT22;52411;52.716;6.696;2023-12-14T06:12:48;5.10;99.90
65692;DHT22;52411;52.716;6.696;2023-12-14T06:15:14;5.10;99.90
65692;DHT22;52411;52.716;6.696;2023-12-14T06:17:40;5.10;99.90
65692;DHT22;52411;52.716;6.696;2023-12-14T06:20:08;5.10;99.90
65692;DHT22;52411;52.716;6.696;2023-12-14T06:22:37;5.10;99.90
65692;DHT22;52411;52.716;6.696;2023-12-14T06:25:02;5.10;99.90
65692;DHT22;52411;52.716;6.696;2023-12-14T06:27:29;5.10;99.90
65692;DHT22;52411;52.716;6.696;2023-12-14T06:29:54;5.10;99.90
65692;DHT22;52411;52.716;6.696;2023-12-14T06:32:20;5.10;99.90
65692;DHT22;52411;52.716;6.696;2023-12-14T06:34:46;5.10;99.90
65692;DHT22;52411;52.716;6.696;2023-12-14T06:37:11;5.10;99.90
65692;DHT22;52411;52.716;6.696;2023-12-14T06:39:37;5.10;99.90
65692;DHT22;52411;52.716;6.696;2023-12-14T06:42:03;5.10;99.90
65692;DHT22;52411;52.716;6.696;2023-12-14T06:44:28;5.10;99.90
65692;DHT22;52411;52.716;6.696;2023-12-14T06:46:55;5.10;99.90
65692;DHT22;52411;52.716;6.696;2023-12-14T06:49:24;5.10;99.90
65692;DHT22;52411;52.716;6.696;2023-12-14T06:51:50;5.10;99.90
65692;DHT22;52411;52.716;6.696;2023-12-14T06:54:15;5.10;99.90
65692;DHT22;52411;52.716;6.696;2023-12-14T06:56:41;5.10;99.90
65692;DHT22;52411;52.716;6.696;2023-12-14T06:59:08;5.10;99.90
65692;DHT22;52411;52.716;6.696;2023-12-14T07:01:34;5.10;99.90
65692;DHT22;52411;52.716;6.696;2023-12-14T07:04:00;5.10;99.90
65692;DHT22;52411;52.716;6.696;2023-12-14T07:06:26;5.10;99.90
65692;DHT22;52411;52.716;6.696;2023-12-14T07:08:51;5.10;99.90
65692;DHT22;52411;52.716;6.696;2023-12-14T07:11:17;5.10;99.90
65692;DHT22;52411;52.716;6.696;2023-12-14T07:13:42;5.10;99.90
65692;DHT22;52411;52.716;6.696;2023-12-14T07:34:16;5.00;99.90
65692;DHT22;52411;52.716;6.696;2023-12-14T07:36:42;5.00;99.90
65692;DHT22;52411;52.716;6.696;2023-12-14T07:39:07;5.00;99.90
65692;DHT22;52411;52.716;6.696;2023-12-14T07:41:34;5.00;99.90
65692;DHT22;52411;52.716;6.696;2023-12-14T07:44:01;5.10;99.90
65692;DHT22;52411;52.716;6.696;2023-12-14T07:49:02;5.00;99.90
65692;DHT22;52411;52.716;6.696;2023-12-14T07:51:27;5.00;99.90
65692;DHT22;52411;52.716;6.696;2023-12-14T07:53:53;5.10;99.90
65692;DHT22;52411;52.716;6.696;2023-12-14T07:56:18;5.10;99.90
65692;DHT22;52411;52.716;6.696;2023-12-14T07:58:44;5.00;99.90
65692;DHT22;52411;52.716;6.696;2023-12-14T08:01:09;5.00;99.90
65692;DHT22;52411;52.716;6.696;2023-12-14T08:03:35;5.10;99.90
65692;DHT22;52411;52.716;6.696;2023-12-14T08:06:01;5.00;99.90
65692;DHT22;52411;52.716;6.696;2023-12-14T08:11:02;5.00;99.90
65692;DHT22;52411;52.716;6.696;2023-12-14T08:13:28;5.00;99.90
65692;DHT22;52411;52.716;6.696;2023-12-14T08:15:54;5.00;99.90
65692;DHT22;52411;52.716;6.696;2023-12-14T08:18:19;5.10;99.90
65692;DHT22;52411;52.716;6.696;2023-12-14T08:33:44;5.10;99.90
65692;DHT22;52411;52.716;6.696;2023-12-14T08:41:27;5.10;99.90
65692;DHT22;52411;52.716;6.696;2023-12-14T08:43:53;5.10;99.90
65692;DHT22;52411;52.716;6.696;2023-12-14T08:51:25;5.10;99.90
65692;DHT22;52411;52.716;6.696;2023-12-14T08:53:52;5.20;99.90
65692;DHT22;52411;52.716;6.696;2023-12-14T08:56:17;5.20;99.90
65692;DHT22;52411;52.716;6.696;2023-12-14T08:58:43;5.10;99.90
65692;DHT22;52411;52.716;6.696;2023-12-14T09:01:08;5.20;99.90
65692;DHT22;52411;52.716;6.696;2023-12-14T09:13:55;5.30;99.90
65692;DHT22;52411;52.716;6.696;2023-12-14T09:16:21;5.30;99.90
65692;DHT22;52411;52.716;6.696;2023-12-14T09:18:46;5.30;99.90
65692;DHT22;52411;52.716;6.696;2023-12-14T09:21:12;5.30;99.90
65692;DHT22;52411;52.716;6.696;2023-12-14T09:23:38;5.30;99.90
65692;DHT22;52411;52.716;6.696;2023-12-14T09:26:06;5.40;99.90
65692;DHT22;52411;52.716;6.696;2023-12-14T09:28:31;5.40;99.90
65692;DHT22;52411;52.716;6.696;2023-12-14T09:30:57;5.40;99.90
65692;DHT22;52411;52.716;6.696;2023-12-14T09:33:22;5.40;99.90
65692;DHT22;52411;52.716;6.696;2023-12-14T09:35:48;5.40;99.90
65692;DHT22;52411;52.716;6.696;2023-12-14T09:38:13;5.50;99.90
65692;DHT22;52411;52.716;6.696;2023-12-14T09:40:43;5.50;99.90
65692;DHT22;52411;52.716;6.696;2023-12-14T09:43:09;5.60;99.90
65692;DHT22;52411;52.716;6.696;2023-12-14T09:45:36;5.60;99.90
65692;DHT22;52411;52.716;6.696;2023-12-14T09:48:03;5.60;99.90
65692;DHT22;52411;52.716;6.696;2023-12-14T09:50:30;5.60;99.90
65692;DHT22;52411;52.716;6.696;2023-12-14T09:52:57;5.60;99.90
65692;DHT22;52411;52.716;6.696;2023-12-14T09:55:22;5.60;99.90
65692;DHT22;52411;52.716;6.696;2023-12-14T09:57:48;5.60;99.90
65692;DHT22;52411;52.716;6.696;2023-12-14T10:00:36;5.60;99.90
65692;DHT22;52411;52.716;6.696;2023-12-14T10:03:21;5.60;99.90
65692;DHT22;52411;52.716;6.696;2023-12-14T10:05:47;5.60;99.90
65692;DHT22;52411;52.716;6.696;2023-12-14T10:08:14;5.60;99.90
65692;DHT22;52411;52.716;6.696;2023-12-14T10:10:40;5.60;99.90
65692;DHT22;52411;52.716;6.696;2023-12-14T10:13:06;5.60;99.90
65692;DHT22;52411;52.716;6.696;2023-12-14T10:15:40;5.60;99.90
65692;DHT22;52411;52.716;6.696;2023-12-14T10:18:06;5.60;99.90
65692;DHT22;52411;52.716;6.696;2023-12-14T10:20:32;5.70;99.90
65692;DHT22;52411;52.716;6.696;2023-12-14T10:22:57;5.70;99.90
65692;DHT22;52411;52.716;6.696;2023-12-14T10:25:23;5.80;99.90
65692;DHT22;52411;52.716;6.696;2023-12-14T10:27:51;5.70;99.90
65692;DHT22;52411;52.716;6.696;2023-12-14T10:30:18;5.80;99.90
65692;DHT22;52411;52.716;6.696;2023-12-14T10:32:47;5.80;99.90
65692;DHT22;52411;52.716;6.696;2023-12-14T10:35:13;5.80;99.90
65692;DHT22;52411;52.716;6.696;2023-12-14T10:37:42;5.90;99.90
65692;DHT22;52411;52.716;6.696;2023-12-14T10:40:11;5.90;99.90
65692;DHT22;52411;52.716;6.696;2023-12-14T10:42:40;5.90;99.90
65692;DHT22;52411;52.716;6.696;2023-12-14T10:45:08;5.90;99.90
65692;DHT22;52411;52.716;6.696;2023-12-14T10:47:38;5.90;99.90
65692;DHT22;52411;52.716;6.696;2023-12-14T10:50:05;5.90;99.90
65692;DHT22;52411;52.716;6.696;2023-12-14T10:52:31;5.90;99.90
65692;DHT22;52411;52.716;6.696;2023-12-14T10:55:06;5.90;99.90
65692;DHT22;52411;52.716;6.696;2023-12-14T10:57:33;5.90;99.90
65692;DHT22;52411;52.716;6.696;2023-12-14T11:00:00;5.90;99.90
65692;DHT22;52411;52.716;6.696;2023-12-14T11:02:26;5.90;99.90
65692;DHT22;52411;52.716;6.696;2023-12-14T11:05:00;5.90;99.90
65692;DHT22;52411;52.716;6.696;2023-12-14T11:07:47;6.00;99.90
65692;DHT22;52411;52.716;6.696;2023-12-14T11:10:14;6.00;99.90
65692;DHT22;52411;52.716;6.696;2023-12-14T11:12:51;6.00;99.90
65692;DHT22;52411;52.716;6.696;2023-12-14T11:15:18;6.10;99.90
65692;DHT22;52411;52.716;6.696;2023-12-14T11:26:05;6.20;99.90
65692;DHT22;52411;52.716;6.696;2023-12-14T11:28:33;6.10;99.90
65692;DHT22;52411;52.716;6.696;2023-12-14T11:31:00;6.10;99.90
65692;DHT22;52411;52.716;6.696;2023-12-14T11:33:27;6.10;99.90
65692;DHT22;52411;52.716;6.696;2023-12-14T11:35:54;6.10;99.90
65692;DHT22;52411;52.716;6.696;2023-12-14T11:38:21;6.10;99.90
65692;DHT22;52411;52.716;6.696;2023-12-14T11:40:49;6.00;99.90
65692;DHT22;52411;52.716;6.696;2023-12-14T11:43:15;6.10;99.90
65692;DHT22;52411;52.716;6.696;2023-12-14T11:45:41;6.10;99.90
65692;DHT22;52411;52.716;6.696;2023-12-14T11:48:09;6.10;99.90
65692;DHT22;52411;52.716;6.696;2023-12-14T11:50:40;6.20;99.90
65692;DHT22;52411;52.716;6.696;2023-12-14T11:53:06;6.20;99.90
65692;DHT22;52411;52.716;6.696;2023-12-14T11:55:36;6.20;99.90
65692;DHT22;52411;52.716;6.696;2023-12-14T11:58:02;6.20;99.90
65692;DHT22;52411;52.716;6.696;2023-12-14T12:00:29;6.20;99.90
65692;DHT22;52411;52.716;6.696;2023-12-14T12:03:18;6.20;99.90
65692;DHT22;52411;52.716;6.696;2023-12-14T12:05:48;6.30;99.90
65692;DHT22;52411;52.716;6.696;2023-12-14T12:08:20;6.30;99.90
65692;DHT22;52411;52.716;6.696;2023-12-14T12:10:46;6.20;99.90
65692;DHT22;52411;52.716;6.696;2023-12-14T12:13:15;6.20;99.90
65692;DHT22;52411;52.716;6.696;2023-12-14T12:15:41;6.20;99.90
65692;DHT22;52411;52.716;6.696;2023-12-14T12:18:09;6.20;99.90
65692;DHT22;52411;52.716;6.696;2023-12-14T12:20:35;6.20;99.90
65692;DHT22;52411;52.716;6.696;2023-12-14T12:23:01;6.10;99.90
65692;DHT22;52411;52.716;6.696;2023-12-14T12:25:28;6.20;99.90
65692;DHT22;52411;52.716;6.696;2023-12-14T12:27:57;6.20;99.90
65692;DHT22;52411;52.716;6.696;2023-12-14T12:30:23;6.30;99.90
65692;DHT22;52411;52.716;6.696;2023-12-14T12:32:49;6.30;99.90
65692;DHT22;52411;52.716;6.696;2023-12-14T12:35:17;6.40;99.90
65692;DHT22;52411;52.716;6.696;2023-12-14T12:37:43;6.50;99.90
65692;DHT22;52411;52.716;6.696;2023-12-14T12:40:09;6.50;99.90
65692;DHT22;52411;52.716;6.696;2023-12-14T12:42:35;6.50;99.90
65692;DHT22;52411;52.716;6.696;2023-12-14T12:45:01;6.60;99.90
65692;DHT22;52411;52.716;6.696;2023-12-14T12:47:26;6.60;99.90
65692;DHT22;52411;52.716;6.696;2023-12-14T12:49:52;6.60;99.90
65692;DHT22;52411;52.716;6.696;2023-12-14T12:52:18;6.60;99.90
65692;DHT22;52411;52.716;6.696;2023-12-14T12:54:43;6.60;99.90
65692;DHT22;52411;52.716;6.696;2023-12-14T12:57:09;6.50;99.90
65692;DHT22;52411;52.716;6.696;2023-12-14T12:59:34;6.50;99.90
65692;DHT22;52411;52.716;6.696;2023-12-14T13:02:00;6.50;99.90
65692;DHT22;52411;52.716;6.696;2023-12-14T13:04:27;6.60;99.90
65692;DHT22;52411;52.716;6.696;2023-12-14T13:06:55;6.50;99.90
65692;DHT22;52411;52.716;6.696;2023-12-14T13:09:21;6.50;99.90
65692;DHT22;52411;52.716;6.696;2023-12-14T13:11:47;6.40;99.90
65692;DHT22;52411;52.716;6.696;2023-12-14T13:14:12;6.40;99.90
65692;DHT22;52411;52.716;6.696;2023-12-14T13:16:40;6.40;99.90
65692;DHT22;52411;52.716;6.696;2023-12-14T13:19:06;6.40;99.90
65692;DHT22;52411;52.716;6.696;2023-12-14T13:21:32;6.40;99.90
65692;DHT22;52411;52.716;6.696;2023-12-14T13:24:01;6.40;99.90
65692;DHT22;52411;52.716;6.696;2023-12-14T13:26:27;6.40;99.90
65692;DHT22;52411;52.716;6.696;2023-12-14T13:28:53;6.30;99.90
65692;DHT22;52411;52.716;6.696;2023-12-14T13:31:18;6.30;99.90
65692;DHT22;52411;52.716;6.696;2023-12-14T13:33:46;6.30;99.90
65692;DHT22;52411;52.716;6.696;2023-12-14T13:36:12;6.30;99.90
65692;DHT22;52411;52.716;6.696;2023-12-14T13:38:37;6.20;99.90
65692;DHT22;52411;52.716;6.696;2023-12-14T13:41:03;6.30;99.90
65692;DHT22;52411;52.716;6.696;2023-12-14T13:43:29;6.20;99.90
65692;DHT22;52411;52.716;6.696;2023-12-14T13:45:55;6.20;99.90
65692;DHT22;52411;52.716;6.696;2023-12-14T13:48:25;6.10;99.90
65692;DHT22;52411;52.716;6.696;2023-12-14T13:50:51;6.10;99.90
65692;DHT22;52411;52.716;6.696;2023-12-14T13:53:17;6.10;99.90
65692;DHT22;52411;52.716;6.696;2023-12-14T13:55:42;6.00;99.90
65692;DHT22;52411;52.716;6.696;2023-12-14T13:58:08;6.00;99.90
65692;DHT22;52411;52.716;6.696;2023-12-14T14:00:33;6.00;99.90
65692;DHT22;52411;52.716;6.696;2023-12-14T14:03:00;6.00;99.90
65692;DHT22;52411;52.716;6.696;2023-12-14T14:05:26;5.90;99.90
65692;DHT22;52411;52.716;6.696;2023-12-14T14:07:52;5.90;99.90
65692;DHT22;52411;52.716;6.696;2023-12-14T14:10:18;5.90;99.90
65692;DHT22;52411;52.716;6.696;2023-12-14T14:12:45;5.90;99.90
65692;DHT22;52411;52.716;6.696;2023-12-14T14:15:11;5.90;99.90
65692;DHT22;52411;52.716;6.696;2023-12-14T14:17:36;5.80;99.90
65692;DHT22;52411;52.716;6.696;2023-12-14T14:20:02;5.80;99.90
65692;DHT22;52411;52.716;6.696;2023-12-14T14:22:29;5.80;99.90
65692;DHT22;52411;52.716;6.696;2023-12-14T14:24:55;5.70;99.90
65692;DHT22;52411;52.716;6.696;2023-12-14T14:27:20;5.70;99.90
65692;DHT22;52411;52.716;6.696;2023-12-14T14:29:46;5.70;99.90
65692;DHT22;52411;52.716;6.696;2023-12-14T14:32:11;5.60;99.90
65692;DHT22;52411;52.716;6.696;2023-12-14T14:34:37;5.60;99.90
65692;DHT22;52411;52.716;6.696;2023-12-14T14:37:02;5.60;99.90
65692;DHT22;52411;52.716;6.696;2023-12-14T14:39:28;5.60;99.90
65692;DHT22;52411;52.716;6.696;2023-12-14T14:41:53;5.60;99.90
65692;DHT22;52411;52.716;6.696;2023-12-14T14:44:19;5.60;99.90
65692;DHT22;52411;52.716;6.696;2023-12-14T14:46:45;5.70;99.90
65692;DHT22;52411;52.716;6.696;2023-12-14T14:49:10;5.80;99.90
65692;DHT22;52411;52.716;6.696;2023-12-14T14:51:36;5.90;99.90
65692;DHT22;52411;52.716;6.696;2023-12-14T14:54:02;6.00;99.90
65692;DHT22;52411;52.716;6.696;2023-12-14T14:56:27;6.10;99.90
65692;DHT22;52411;52.716;6.696;2023-12-14T14:58:53;6.10;99.90
65692;DHT22;52411;52.716;6.696;2023-12-14T15:01:19;6.20;99.90
65692;DHT22;52411;52.716;6.696;2023-12-14T15:03:44;6.20;99.90
65692;DHT22;52411;52.716;6.696;2023-12-14T15:06:10;6.00;99.90
65692;DHT22;52411;52.716;6.696;2023-12-14T15:08:36;5.90;99.90
65692;DHT22;52411;52.716;6.696;2023-12-14T15:11:02;5.70;99.90
65692;DHT22;52411;52.716;6.696;2023-12-14T15:13:28;5.70;99.90
65692;DHT22;52411;52.716;6.696;2023-12-14T15:15:54;5.50;99.90
65692;DHT22;52411;52.716;6.696;2023-12-14T15:18:21;5.40;99.90
65692;DHT22;52411;52.716;6.696;2023-12-14T15:20:46;5.30;99.90
65692;DHT22;52411;52.716;6.696;2023-12-14T15:23:14;5.20;99.90
65692;DHT22;52411;52.716;6.696;2023-12-14T15:25:39;5.10;99.90
65692;DHT22;52411;52.716;6.696;2023-12-14T15:28:05;5.10;99.90
65692;DHT22;52411;52.716;6.696;2023-12-14T15:30:31;5.00;99.90
65692;DHT22;52411;52.716;6.696;2023-12-14T15:32:57;5.00;99.90
65692;DHT22;52411;52.716;6.696;2023-12-14T15:35:22;4.90;99.90
65692;DHT22;52411;52.716;6.696;2023-12-14T15:37:48;4.80;99.90
65692;DHT22;52411;52.716;6.696;2023-12-14T15:40:14;4.70;99.90
65692;DHT22;52411;52.716;6.696;2023-12-14T15:42:39;4.60;99.90
65692;DHT22;52411;52.716;6.696;2023-12-14T15:45:05;4.60;99.90
65692;DHT22;52411;52.716;6.696;2023-12-14T15:47:31;4.60;99.90
65692;DHT22;52411;52.716;6.696;2023-12-14T15:49:57;4.60;99.90
65692;DHT22;52411;52.716;6.696;2023-12-14T15:52:22;4.50;99.90
65692;DHT22;52411;52.716;6.696;2023-12-14T15:54:48;4.60;99.90
65692;DHT22;52411;52.716;6.696;2023-12-14T15:57:13;4.50;99.90
65692;DHT22;52411;52.716;6.696;2023-12-14T15:59:39;4.50;99.90
65692;DHT22;52411;52.716;6.696;2023-12-14T16:02:05;4.50;99.90
65692;DHT22;52411;52.716;6.696;2023-12-14T16:04:31;4.50;99.90
65692;DHT22;52411;52.716;6.696;2023-12-14T16:06:56;4.40;99.90
65692;DHT22;52411;52.716;6.696;2023-12-14T16:09:22;4.40;99.90
65692;DHT22;52411;52.716;6.696;2023-12-14T16:11:47;4.40;99.90
65692;DHT22;52411;52.716;6.696;2023-12-14T16:14:13;4.40;99.90
65692;DHT22;52411;52.716;6.696;2023-12-14T16:16:38;4.40;99.90
65692;DHT22;52411;52.716;6.696;2023-12-14T16:19:04;4.50;99.90
65692;DHT22;52411;52.716;6.696;2023-12-14T16:21:30;4.50;99.90
65692;DHT22;52411;52.716;6.696;2023-12-14T16:23:55;4.50;99.90
65692;DHT22;52411;52.716;6.696;2023-12-14T16:26:21;4.50;99.90
65692;DHT22;52411;52.716;6.696;2023-12-14T16:28:47;4.50;99.90
65692;DHT22;52411;52.716;6.696;2023-12-14T16:31:12;4.50;99.90
65692;DHT22;52411;52.716;6.696;2023-12-14T16:33:38;4.50;99.90
65692;DHT22;52411;52.716;6.696;2023-12-14T16:36:14;4.50;99.90
65692;DHT22;52411;52.716;6.696;2023-12-14T16:38:40;4.60;99.90
65692;DHT22;52411;52.716;6.696;2023-12-14T16:41:06;4.60;99.90
65692;DHT22;52411;52.716;6.696;2023-12-14T16:43:32;4.60;99.90
65692;DHT22;52411;52.716;6.696;2023-12-14T16:45:58;4.60;99.90
65692;DHT22;52411;52.716;6.696;2023-12-14T16:48:24;4.70;99.90
65692;DHT22;52411;52.716;6.696;2023-12-14T16:50:49;4.70;99.90
65692;DHT22;52411;52.716;6.696;2023-12-14T16:53:24;4.70;99.90
65692;DHT22;52411;52.716;6.696;2023-12-14T16:55:54;4.70;99.90
65692;DHT22;52411;52.716;6.696;2023-12-14T16:58:24;4.70;99.90
65692;DHT22;52411;52.716;6.696;2023-12-14T17:00:50;4.70;99.90
65692;DHT22;52411;52.716;6.696;2023-12-14T17:03:19;4.80;99.90
65692;DHT22;52411;52.716;6.696;2023-12-14T17:05:44;4.80;99.90
65692;DHT22;52411;52.716;6.696;2023-12-14T17:08:10;4.80;99.90
65692;DHT22;52411;52.716;6.696;2023-12-14T17:10:35;4.80;99.90
65692;DHT22;52411;52.716;6.696;2023-12-14T17:13:01;4.90;99.90
65692;DHT22;52411;52.716;6.696;2023-12-14T17:15:28;4.80;99.90
65692;DHT22;52411;52.716;6.696;2023-12-14T17:17:53;4.90;99.90
65692;DHT22;52411;52.716;6.696;2023-12-14T17:20:19;4.90;99.90
65692;DHT22;52411;52.716;6.696;2023-12-14T17:22:45;4.90;99.90
65692;DHT22;52411;52.716;6.696;2023-12-14T17:25:10;4.90;99.90
65692;DHT22;52411;52.716;6.696;2023-12-14T17:27:36;4.90;99.90
65692;DHT22;52411;52.716;6.696;2023-12-14T17:30:02;4.90;99.90